sensor_id;sensor_type;location;lat;lon;timestamp;P1;durP1;ratioP1;P2;durP2;ratioP2
63444;SDS011;49573;47.682;9.170;2022-11-18T00:01:55;1.20;;;0.75;;
63444;SDS011;49573;47.682;9.170;2022-11-18T00:04:42;2.50;;;0.90;;
63444;SDS011;49573;47.682;9.170;2022-11-18T00:07:28;2.65;;;0.95;;
63444;SDS011;49573;47.682;9.170;2022-11-18T00:10:15;1.23;;;1.02;;
63444;SDS011;49573;47.682;9.170;2022-11-18T00:13:01;1.25;;;1.00;;
63444;SDS011;49573;47.682;9.170;2022-11-18T00:16:07;1.52;;;0.65;;
63444;SDS011;49573;47.682;9.170;2022-11-18T00:18:54;0.85;;;0.63;;
63444;SDS011;49573;47.682;9.170;2022-11-18T00:21:42;1.77;;;0.98;;
63444;SDS011;49573;47.682;9.170;2022-11-18T00:24:28;1.33;;;1.00;;
63444;SDS011;49573;47.682;9.170;2022-11-18T00:27:14;1.63;;;1.00;;
63444;SDS011;49573;47.682;9.170;2022-11-18T00:30:00;1.08;;;0.50;;
63444;SDS011;49573;47.682;9.170;2022-11-18T00:32:46;1.35;;;0.60;;
63444;SDS011;49573;47.682;9.170;2022-11-18T00:35:32;1.63;;;0.80;;
63444;SDS011;49573;47.682;9.170;2022-11-18T00:38:20;1.58;;;0.80;;
63444;SDS011;49573;47.682;9.170;2022-11-18T00:41:07;1.27;;;0.80;;
63444;SDS011;49573;47.682;9.170;2022-11-18T00:43:55;1.55;;;0.63;;
63444;SDS011;49573;47.682;9.170;2022-11-18T00:46:41;1.70;;;0.90;;
63444;SDS011;49573;47.682;9.170;2022-11-18T00:49:27;1.55;;;0.60;;
63444;SDS011;49573;47.682;9.170;2022-11-18T00:52:13;0.95;;;0.43;;
63444;SDS011;49573;47.682;9.170;2022-11-18T00:55:01;0.30;;;0.30;;
63444;SDS011;49573;47.682;9.170;2022-11-18T00:57:47;1.50;;;0.60;;
63444;SDS011;49573;47.682;9.170;2022-11-18T01:00:33;1.20;;;0.52;;
63444;SDS011;49573;47.682;9.170;2022-11-18T01:03:19;1.50;;;0.65;;
63444;SDS011;49573;47.682;9.170;2022-11-18T01:06:05;1.27;;;0.90;;
63444;SDS011;49573;47.682;9.170;2022-11-18T01:08:52;1.00;;;0.80;;
63444;SDS011;49573;47.682;9.170;2022-11-18T01:11:39;1.77;;;1.20;;
63444;SDS011;49573;47.682;9.170;2022-11-18T01:14:44;1.33;;;0.68;;
63444;SDS011;49573;47.682;9.170;2022-11-18T01:17:30;1.23;;;0.98;;
63444;SDS011;49573;47.682;9.170;2022-11-18T01:20:16;3.00;;;1.17;;
63444;SDS011;49573;47.682;9.170;2022-11-18T01:23:02;1.58;;;0.95;;
63444;SDS011;49573;47.682;9.170;2022-11-18T01:25:49;1.50;;;1.00;;
63444;SDS011;49573;47.682;9.170;2022-11-18T01:28:36;1.73;;;1.08;;
63444;SDS011;49573;47.682;9.170;2022-11-18T01:31:22;1.63;;;0.93;;
63444;SDS011;49573;47.682;9.170;2022-11-18T01:34:09;1.40;;;0.95;;
63444;SDS011;49573;47.682;9.170;2022-11-18T01:36:56;1.83;;;1.10;;
63444;SDS011;49573;47.682;9.170;2022-11-18T01:39:43;2.40;;;1.17;;
63444;SDS011;49573;47.682;9.170;2022-11-18T01:42:29;1.50;;;1.23;;
63444;SDS011;49573;47.682;9.170;2022-11-18T01:45:20;1.00;;;0.70;;
63444;SDS011;49573;47.682;9.170;2022-11-18T01:48:12;1.42;;;0.95;;
63444;SDS011;49573;47.682;9.170;2022-11-18T01:51:03;1.38;;;1.00;;
63444;SDS011;49573;47.682;9.170;2022-11-18T01:53:54;2.30;;;1.17;;
63444;SDS011;49573;47.682;9.170;2022-11-18T01:56:45;2.33;;;1.15;;
63444;SDS011;49573;47.682;9.170;2022-11-18T01:59:35;2.88;;;1.20;;
63444;SDS011;49573;47.682;9.170;2022-11-18T02:02:25;1.17;;;0.70;;
63444;SDS011;49573;47.682;9.170;2022-11-18T02:05:14;2.38;;;1.20;;
63444;SDS011;49573;47.682;9.170;2022-11-18T02:10:47;1.63;;;1.00;;
63444;SDS011;49573;47.682;9.170;2022-11-18T02:13:34;1.00;;;0.80;;
63444;SDS011;49573;47.682;9.170;2022-11-18T02:16:20;0.63;;;0.57;;
63444;SDS011;49573;47.682;9.170;2022-11-18T02:19:16;2.00;;;1.02;;
63444;SDS011;49573;47.682;9.170;2022-11-18T02:22:21;0.98;;;0.65;;
63444;SDS011;49573;47.682;9.170;2022-11-18T02:25:20;1.77;;;0.70;;
63444;SDS011;49573;47.682;9.170;2022-11-18T02:28:28;0.73;;;0.40;;
63444;SDS011;49573;47.682;9.170;2022-11-18T02:31:23;0.28;;;0.15;;
63444;SDS011;49573;47.682;9.170;2022-11-18T02:34:17;0.50;;;0.32;;
63444;SDS011;49573;47.682;9.170;2022-11-18T02:37:16;0.68;;;0.40;;
63444;SDS011;49573;47.682;9.170;2022-11-18T02:40:09;0.40;;;0.30;;
63444;SDS011;49573;47.682;9.170;2022-11-18T02:42:59;1.05;;;0.50;;
63444;SDS011;49573;47.682;9.170;2022-11-18T02:45:50;2.13;;;0.40;;
63444;SDS011;49573;47.682;9.170;2022-11-18T02:48:42;1.23;;;0.47;;
63444;SDS011;49573;47.682;9.170;2022-11-18T02:51:32;0.90;;;0.50;;
63444;SDS011;49573;47.682;9.170;2022-11-18T02:54:19;1.35;;;0.68;;
63444;SDS011;49573;47.682;9.170;2022-11-18T02:57:07;1.30;;;0.40;;
63444;SDS011;49573;47.682;9.170;2022-11-18T02:59:54;1.50;;;1.00;;
63444;SDS011;49573;47.682;9.170;2022-11-18T03:02:40;0.60;;;0.50;;
63444;SDS011;49573;47.682;9.170;2022-11-18T03:05:31;0.65;;;0.50;;
63444;SDS011;49573;47.682;9.170;2022-11-18T03:08:24;1.17;;;0.63;;
63444;SDS011;49573;47.682;9.170;2022-11-18T03:11:15;1.35;;;0.40;;
63444;SDS011;49573;47.682;9.170;2022-11-18T03:14:07;1.23;;;0.50;;
63444;SDS011;49573;47.682;9.170;2022-11-18T03:17:01;1.27;;;0.40;;
63444;SDS011;49573;47.682;9.170;2022-11-18T03:19:56;0.30;;;0.20;;
63444;SDS011;49573;47.682;9.170;2022-11-18T03:22:56;1.60;;;0.40;;
63444;SDS011;49573;47.682;9.170;2022-11-18T03:25:49;0.40;;;0.40;;
63444;SDS011;49573;47.682;9.170;2022-11-18T03:28:39;1.15;;;0.45;;
63444;SDS011;49573;47.682;9.170;2022-11-18T03:31:32;1.08;;;0.45;;
63444;SDS011;49573;47.682;9.170;2022-11-18T03:34:24;0.60;;;0.50;;
63444;SDS011;49573;47.682;9.170;2022-11-18T03:37:15;0.93;;;0.50;;
63444;SDS011;49573;47.682;9.170;2022-11-18T03:40:05;0.47;;;0.40;;
63444;SDS011;49573;47.682;9.170;2022-11-18T03:42:58;1.70;;;0.95;;
63444;SDS011;49573;47.682;9.170;2022-11-18T03:45:49;0.68;;;0.40;;
63444;SDS011;49573;47.682;9.170;2022-11-18T03:48:40;1.92;;;0.40;;
63444;SDS011;49573;47.682;9.170;2022-11-18T03:51:29;0.47;;;0.40;;
63444;SDS011;49573;47.682;9.170;2022-11-18T03:54:21;0.20;;;0.20;;
63444;SDS011;49573;47.682;9.170;2022-11-18T03:57:12;1.42;;;0.35;;
63444;SDS011;49573;47.682;9.170;2022-11-18T04:00:05;0.30;;;0.30;;
63444;SDS011;49573;47.682;9.170;2022-11-18T04:02:54;1.23;;;0.85;;
63444;SDS011;49573;47.682;9.170;2022-11-18T04:05:41;0.77;;;0.77;;
63444;SDS011;49573;47.682;9.170;2022-11-18T04:08:29;1.13;;;0.68;;
63444;SDS011;49573;47.682;9.170;2022-11-18T04:11:21;1.52;;;0.40;;
63444;SDS011;49573;47.682;9.170;2022-11-18T04:14:31;0.38;;;0.35;;
63444;SDS011;49573;47.682;9.170;2022-11-18T04:17:19;0.70;;;0.20;;
63444;SDS011;49573;47.682;9.170;2022-11-18T04:20:10;0.10;;;0.10;;
63444;SDS011;49573;47.682;9.170;2022-11-18T04:23:01;0.52;;;0.20;;
63444;SDS011;49573;47.682;9.170;2022-11-18T04:25:47;0.65;;;0.38;;
63444;SDS011;49573;47.682;9.170;2022-11-18T04:28:33;1.25;;;0.30;;
63444;SDS011;49573;47.682;9.170;2022-11-18T04:31:21;0.32;;;0.32;;
63444;SDS011;49573;47.682;9.170;2022-11-18T04:34:07;1.10;;;0.68;;
63444;SDS011;49573;47.682;9.170;2022-11-18T04:36:53;0.63;;;0.30;;
63444;SDS011;49573;47.682;9.170;2022-11-18T04:39:39;0.23;;;0.23;;
63444;SDS011;49573;47.682;9.170;2022-11-18T04:42:25;0.22;;;0.22;;
63444;SDS011;49573;47.682;9.170;2022-11-18T04:45:11;1.85;;;0.25;;
63444;SDS011;49573;47.682;9.170;2022-11-18T04:47:59;2.40;;;0.30;;
63444;SDS011;49573;47.682;9.170;2022-11-18T04:50:45;0.00;;;0.00;;
63444;SDS011;49573;47.682;9.170;2022-11-18T04:53:31;1.05;;;0.32;;
63444;SDS011;49573;47.682;9.170;2022-11-18T04:56:17;0.20;;;0.10;;
63444;SDS011;49573;47.682;9.170;2022-11-18T04:59:03;0.43;;;0.13;;
63444;SDS011;49573;47.682;9.170;2022-11-18T05:01:49;0.30;;;0.10;;
63444;SDS011;49573;47.682;9.170;2022-11-18T05:04:38;0.20;;;0.20;;
63444;SDS011;49573;47.682;9.170;2022-11-18T05:07:24;0.03;;;0.00;;
63444;SDS011;49573;47.682;9.170;2022-11-18T05:10:10;0.20;;;0.15;;
63444;SDS011;49573;47.682;9.170;2022-11-18T05:12:56;0.20;;;0.10;;
63444;SDS011;49573;47.682;9.170;2022-11-18T05:15:42;0.17;;;0.10;;
63444;SDS011;49573;47.682;9.170;2022-11-18T05:18:28;1.35;;;0.20;;
63444;SDS011;49573;47.682;9.170;2022-11-18T05:21:15;0.10;;;0.10;;
63444;SDS011;49573;47.682;9.170;2022-11-18T05:24:02;0.00;;;0.00;;
63444;SDS011;49573;47.682;9.170;2022-11-18T05:26:49;0.63;;;0.38;;
63444;SDS011;49573;47.682;9.170;2022-11-18T05:29:36;0.10;;;0.10;;
63444;SDS011;49573;47.682;9.170;2022-11-18T05:32:22;0.45;;;0.30;;
63444;SDS011;49573;47.682;9.170;2022-11-18T05:35:08;0.10;;;0.10;;
63444;SDS011;49573;47.682;9.170;2022-11-18T05:37:56;0.75;;;0.32;;
63444;SDS011;49573;47.682;9.170;2022-11-18T05:40:42;0.30;;;0.30;;
63444;SDS011;49573;47.682;9.170;2022-11-18T05:43:28;0.57;;;0.30;;
63444;SDS011;49573;47.682;9.170;2022-11-18T05:46:15;0.38;;;0.20;;
63444;SDS011;49573;47.682;9.170;2022-11-18T05:49:01;0.45;;;0.30;;
63444;SDS011;49573;47.682;9.170;2022-11-18T05:51:47;0.70;;;0.40;;
63444;SDS011;49573;47.682;9.170;2022-11-18T05:54:35;0.10;;;0.10;;
63444;SDS011;49573;47.682;9.170;2022-11-18T05:57:24;0.65;;;0.40;;
63444;SDS011;49573;47.682;9.170;2022-11-18T06:00:10;0.13;;;0.13;;
63444;SDS011;49573;47.682;9.170;2022-11-18T06:02:57;0.60;;;0.20;;
63444;SDS011;49573;47.682;9.170;2022-11-18T06:05:44;0.65;;;0.28;;
63444;SDS011;49573;47.682;9.170;2022-11-18T06:08:31;0.30;;;0.20;;
63444;SDS011;49573;47.682;9.170;2022-11-18T06:11:22;0.30;;;0.28;;
63444;SDS011;49573;47.682;9.170;2022-11-18T06:14:09;2.78;;;0.60;;
63444;SDS011;49573;47.682;9.170;2022-11-18T06:16:59;0.10;;;0.10;;
63444;SDS011;49573;47.682;9.170;2022-11-18T06:19:49;0.22;;;0.10;;
63444;SDS011;49573;47.682;9.170;2022-11-18T06:22:36;0.65;;;0.35;;
63444;SDS011;49573;47.682;9.170;2022-11-18T06:25:22;0.30;;;0.30;;
63444;SDS011;49573;47.682;9.170;2022-11-18T06:28:11;1.27;;;0.22;;
63444;SDS011;49573;47.682;9.170;2022-11-18T06:30:59;0.30;;;0.20;;
63444;SDS011;49573;47.682;9.170;2022-11-18T06:33:45;0.40;;;0.30;;
63444;SDS011;49573;47.682;9.170;2022-11-18T06:36:31;0.28;;;0.25;;
63444;SDS011;49573;47.682;9.170;2022-11-18T06:39:17;0.63;;;0.22;;
63444;SDS011;49573;47.682;9.170;2022-11-18T06:42:03;0.53;;;0.30;;
63444;SDS011;49573;47.682;9.170;2022-11-18T06:44:51;1.92;;;0.73;;
63444;SDS011;49573;47.682;9.170;2022-11-18T06:47:37;0.35;;;0.20;;
63444;SDS011;49573;47.682;9.170;2022-11-18T06:50:23;0.10;;;0.10;;
63444;SDS011;49573;47.682;9.170;2022-11-18T06:53:09;1.30;;;0.40;;
63444;SDS011;49573;47.682;9.170;2022-11-18T06:55:55;0.80;;;0.40;;
63444;SDS011;49573;47.682;9.170;2022-11-18T06:58:41;0.57;;;0.45;;
63444;SDS011;49573;47.682;9.170;2022-11-18T07:01:29;0.13;;;0.13;;
63444;SDS011;49573;47.682;9.170;2022-11-18T07:04:18;0.28;;;0.28;;
63444;SDS011;49573;47.682;9.170;2022-11-18T07:07:05;0.65;;;0.32;;
63444;SDS011;49573;47.682;9.170;2022-11-18T07:09:51;0.40;;;0.30;;
63444;SDS011;49573;47.682;9.170;2022-11-18T07:12:37;0.20;;;0.20;;
63444;SDS011;49573;47.682;9.170;2022-11-18T07:15:23;0.85;;;0.40;;
63444;SDS011;49573;47.682;9.170;2022-11-18T07:18:10;0.52;;;0.47;;
63444;SDS011;49573;47.682;9.170;2022-11-18T07:20:56;0.43;;;0.40;;
63444;SDS011;49573;47.682;9.170;2022-11-18T07:23:46;0.73;;;0.40;;
63444;SDS011;49573;47.682;9.170;2022-11-18T07:26:33;0.52;;;0.50;;
63444;SDS011;49573;47.682;9.170;2022-11-18T07:29:19;0.68;;;0.55;;
63444;SDS011;49573;47.682;9.170;2022-11-18T07:32:05;0.65;;;0.30;;
63444;SDS011;49573;47.682;9.170;2022-11-18T07:34:53;1.42;;;0.35;;
63444;SDS011;49573;47.682;9.170;2022-11-18T07:37:39;0.30;;;0.25;;
63444;SDS011;49573;47.682;9.170;2022-11-18T07:40:25;0.40;;;0.40;;
63444;SDS011;49573;47.682;9.170;2022-11-18T07:43:11;1.30;;;0.30;;
63444;SDS011;49573;47.682;9.170;2022-11-18T07:45:57;0.30;;;0.30;;
63444;SDS011;49573;47.682;9.170;2022-11-18T07:48:43;0.70;;;0.40;;
63444;SDS011;49573;47.682;9.170;2022-11-18T07:51:33;1.67;;;0.57;;
63444;SDS011;49573;47.682;9.170;2022-11-18T07:54:20;0.77;;;0.38;;
63444;SDS011;49573;47.682;9.170;2022-11-18T07:57:06;0.60;;;0.32;;
63444;SDS011;49573;47.682;9.170;2022-11-18T07:59:52;0.82;;;0.40;;
63444;SDS011;49573;47.682;9.170;2022-11-18T08:02:39;0.75;;;0.50;;
63444;SDS011;49573;47.682;9.170;2022-11-18T08:05:27;0.40;;;0.40;;
63444;SDS011;49573;47.682;9.170;2022-11-18T08:08:15;0.40;;;0.40;;
63444;SDS011;49573;47.682;9.170;2022-11-18T08:11:03;0.30;;;0.25;;
63444;SDS011;49573;47.682;9.170;2022-11-18T08:13:50;0.77;;;0.40;;
63444;SDS011;49573;47.682;9.170;2022-11-18T08:16:37;0.38;;;0.30;;
63444;SDS011;49573;47.682;9.170;2022-11-18T08:19:23;0.73;;;0.50;;
63444;SDS011;49573;47.682;9.170;2022-11-18T08:22:09;0.57;;;0.40;;
63444;SDS011;49573;47.682;9.170;2022-11-18T08:24:56;4.25;;;0.55;;
63444;SDS011;49573;47.682;9.170;2022-11-18T08:27:42;1.08;;;0.30;;
63444;SDS011;49573;47.682;9.170;2022-11-18T08:30:28;0.45;;;0.43;;
63444;SDS011;49573;47.682;9.170;2022-11-18T08:33:14;1.77;;;0.55;;
63444;SDS011;49573;47.682;9.170;2022-11-18T08:36:03;0.90;;;0.40;;
63444;SDS011;49573;47.682;9.170;2022-11-18T08:38:50;0.30;;;0.30;;
63444;SDS011;49573;47.682;9.170;2022-11-18T08:41:38;0.70;;;0.50;;
63444;SDS011;49573;47.682;9.170;2022-11-18T08:44:26;0.88;;;0.40;;
63444;SDS011;49573;47.682;9.170;2022-11-18T08:47:12;1.88;;;0.55;;
63444;SDS011;49573;47.682;9.170;2022-11-18T08:49:58;1.25;;;0.40;;
63444;SDS011;49573;47.682;9.170;2022-11-18T08:52:44;0.60;;;0.47;;
63444;SDS011;49573;47.682;9.170;2022-11-18T08:55:30;0.85;;;0.40;;
63444;SDS011;49573;47.682;9.170;2022-11-18T08:58:18;1.20;;;0.40;;
63444;SDS011;49573;47.682;9.170;2022-11-18T09:01:04;0.77;;;0.50;;
63444;SDS011;49573;47.682;9.170;2022-11-18T09:03:51;0.93;;;0.60;;
63444;SDS011;49573;47.682;9.170;2022-11-18T09:06:37;1.88;;;0.40;;
63444;SDS011;49573;47.682;9.170;2022-11-18T09:09:24;1.13;;;0.70;;
63444;SDS011;49573;47.682;9.170;2022-11-18T09:12:10;1.52;;;0.50;;
63444;SDS011;49573;47.682;9.170;2022-11-18T09:15:03;0.55;;;0.50;;
63444;SDS011;49573;47.682;9.170;2022-11-18T09:17:49;1.83;;;0.52;;
63444;SDS011;49573;47.682;9.170;2022-11-18T09:20:35;1.27;;;0.50;;
63444;SDS011;49573;47.682;9.170;2022-11-18T09:23:22;0.80;;;0.50;;
63444;SDS011;49573;47.682;9.170;2022-11-18T09:26:09;2.95;;;0.55;;
63444;SDS011;49573;47.682;9.170;2022-11-18T09:28:56;0.65;;;0.40;;
63444;SDS011;49573;47.682;9.170;2022-11-18T09:31:43;0.70;;;0.60;;
63444;SDS011;49573;47.682;9.170;2022-11-18T09:34:29;0.82;;;0.63;;
63444;SDS011;49573;47.682;9.170;2022-11-18T09:37:15;1.33;;;0.50;;
63444;SDS011;49573;47.682;9.170;2022-11-18T09:40:01;0.88;;;0.60;;
63444;SDS011;49573;47.682;9.170;2022-11-18T09:42:51;2.28;;;1.08;;
63444;SDS011;49573;47.682;9.170;2022-11-18T09:45:43;0.80;;;0.70;;
63444;SDS011;49573;47.682;9.170;2022-11-18T09:48:39;1.40;;;0.82;;
63444;SDS011;49573;47.682;9.170;2022-11-18T09:51:45;0.98;;;0.60;;
63444;SDS011;49573;47.682;9.170;2022-11-18T09:54:33;1.27;;;1.00;;
63444;SDS011;49573;47.682;9.170;2022-11-18T09:57:21;1.30;;;0.98;;
63444;SDS011;49573;47.682;9.170;2022-11-18T10:00:12;2.35;;;1.50;;
63444;SDS011;49573;47.682;9.170;2022-11-18T10:03:00;1.67;;;1.13;;
63444;SDS011;49573;47.682;9.170;2022-11-18T10:05:51;3.88;;;1.25;;
63444;SDS011;49573;47.682;9.170;2022-11-18T10:08:43;1.35;;;1.00;;
63444;SDS011;49573;47.682;9.170;2022-11-18T10:11:36;11.25;;;1.58;;
63444;SDS011;49573;47.682;9.170;2022-11-18T10:14:29;3.65;;;1.60;;
63444;SDS011;49573;47.682;9.170;2022-11-18T10:17:31;2.22;;;1.30;;
63444;SDS011;49573;47.682;9.170;2022-11-18T10:20:36;2.83;;;1.23;;
63444;SDS011;49573;47.682;9.170;2022-11-18T10:23:34;2.97;;;1.00;;
63444;SDS011;49573;47.682;9.170;2022-11-18T10:26:31;1.75;;;0.70;;
63444;SDS011;49573;47.682;9.170;2022-11-18T10:29:18;1.50;;;1.02;;
63444;SDS011;49573;47.682;9.170;2022-11-18T10:32:05;0.75;;;0.73;;
63444;SDS011;49573;47.682;9.170;2022-11-18T10:34:53;1.63;;;1.00;;
63444;SDS011;49573;47.682;9.170;2022-11-18T10:37:40;0.88;;;0.68;;
63444;SDS011;49573;47.682;9.170;2022-11-18T10:40:29;1.77;;;0.60;;
63444;SDS011;49573;47.682;9.170;2022-11-18T10:43:23;1.02;;;0.70;;
63444;SDS011;49573;47.682;9.170;2022-11-18T10:46:29;1.70;;;0.80;;
63444;SDS011;49573;47.682;9.170;2022-11-18T10:49:17;1.67;;;0.80;;
63444;SDS011;49573;47.682;9.170;2022-11-18T10:52:04;1.02;;;0.80;;
63444;SDS011;49573;47.682;9.170;2022-11-18T10:55:06;1.23;;;0.82;;
63444;SDS011;49573;47.682;9.170;2022-11-18T10:58:08;1.58;;;0.80;;
63444;SDS011;49573;47.682;9.170;2022-11-18T11:01:03;1.70;;;0.90;;
63444;SDS011;49573;47.682;9.170;2022-11-18T11:03:52;2.00;;;1.23;;
63444;SDS011;49573;47.682;9.170;2022-11-18T11:06:43;1.80;;;0.90;;
63444;SDS011;49573;47.682;9.170;2022-11-18T11:09:30;0.57;;;0.57;;
63444;SDS011;49573;47.682;9.170;2022-11-18T11:12:16;0.60;;;0.60;;
63444;SDS011;49573;47.682;9.170;2022-11-18T11:15:04;0.80;;;0.68;;
63444;SDS011;49573;47.682;9.170;2022-11-18T11:17:55;1.80;;;1.00;;
63444;SDS011;49573;47.682;9.170;2022-11-18T11:21:02;0.88;;;0.63;;
63444;SDS011;49573;47.682;9.170;2022-11-18T11:23:53;1.02;;;0.80;;
63444;SDS011;49573;47.682;9.170;2022-11-18T11:26:42;0.52;;;0.50;;
63444;SDS011;49573;47.682;9.170;2022-11-18T11:29:45;0.68;;;0.60;;
63444;SDS011;49573;47.682;9.170;2022-11-18T11:33:00;0.90;;;0.63;;
63444;SDS011;49573;47.682;9.170;2022-11-18T11:39:33;0.88;;;0.60;;
63444;SDS011;49573;47.682;9.170;2022-11-18T11:42:31;2.00;;;0.85;;
63444;SDS011;49573;47.682;9.170;2022-11-18T11:45:27;0.77;;;0.52;;
63444;SDS011;49573;47.682;9.170;2022-11-18T11:48:26;1.52;;;1.05;;
63444;SDS011;49573;47.682;9.170;2022-11-18T11:51:28;1.35;;;0.60;;
63444;SDS011;49573;47.682;9.170;2022-11-18T11:54:22;3.60;;;1.10;;
63444;SDS011;49573;47.682;9.170;2022-11-18T11:57:17;0.85;;;0.45;;
63444;SDS011;49573;47.682;9.170;2022-11-18T12:00:14;2.72;;;0.82;;
63444;SDS011;49573;47.682;9.170;2022-11-18T12:03:07;0.88;;;0.50;;
63444;SDS011;49573;47.682;9.170;2022-11-18T12:06:03;1.15;;;0.73;;
63444;SDS011;49573;47.682;9.170;2022-11-18T12:08:54;3.70;;;1.23;;
63444;SDS011;49573;47.682;9.170;2022-11-18T12:11:50;1.25;;;0.93;;
63444;SDS011;49573;47.682;9.170;2022-11-18T12:14:44;0.77;;;0.75;;
63444;SDS011;49573;47.682;9.170;2022-11-18T12:17:39;1.88;;;0.63;;
63444;SDS011;49573;47.682;9.170;2022-11-18T12:20:38;1.23;;;0.57;;
63444;SDS011;49573;47.682;9.170;2022-11-18T12:23:27;1.00;;;0.80;;
63444;SDS011;49573;47.682;9.170;2022-11-18T12:26:14;2.38;;;0.90;;
63444;SDS011;49573;47.682;9.170;2022-11-18T12:29:20;1.77;;;1.10;;
63444;SDS011;49573;47.682;9.170;2022-11-18T12:32:28;1.77;;;1.15;;
63444;SDS011;49573;47.682;9.170;2022-11-18T12:35:22;1.08;;;0.95;;
63444;SDS011;49573;47.682;9.170;2022-11-18T12:38:26;1.27;;;0.75;;
63444;SDS011;49573;47.682;9.170;2022-11-18T12:44:49;2.03;;;0.95;;
63444;SDS011;49573;47.682;9.170;2022-11-18T12:47:55;1.27;;;0.75;;
63444;SDS011;49573;47.682;9.170;2022-11-18T12:50:48;1.50;;;1.30;;
63444;SDS011;49573;47.682;9.170;2022-11-18T12:53:38;1.40;;;1.30;;
63444;SDS011;49573;47.682;9.170;2022-11-18T12:56:26;0.98;;;0.90;;
63444;SDS011;49573;47.682;9.170;2022-11-18T12:59:24;1.05;;;1.00;;
63444;SDS011;49573;47.682;9.170;2022-11-18T13:02:19;1.52;;;1.40;;
63444;SDS011;49573;47.682;9.170;2022-11-18T13:05:09;1.63;;;1.40;;
63444;SDS011;49573;47.682;9.170;2022-11-18T13:07:57;1.58;;;1.20;;
63444;SDS011;49573;47.682;9.170;2022-11-18T13:11:03;1.00;;;1.00;;
63444;SDS011;49573;47.682;9.170;2022-11-18T13:14:14;0.95;;;0.60;;
63444;SDS011;49573;47.682;9.170;2022-11-18T13:17:24;1.40;;;1.30;;
63444;SDS011;49573;47.682;9.170;2022-11-18T13:20:31;1.17;;;0.57;;
63444;SDS011;49573;47.682;9.170;2022-11-18T13:23:24;1.55;;;0.80;;
63444;SDS011;49573;47.682;9.170;2022-11-18T13:26:32;1.23;;;0.93;;
63444;SDS011;49573;47.682;9.170;2022-11-18T13:29:22;3.05;;;1.48;;
63444;SDS011;49573;47.682;9.170;2022-11-18T13:32:18;2.30;;;1.38;;
63444;SDS011;49573;47.682;9.170;2022-11-18T13:35:09;0.93;;;0.80;;
63444;SDS011;49573;47.682;9.170;2022-11-18T13:37:58;1.73;;;0.90;;
63444;SDS011;49573;47.682;9.170;2022-11-18T13:40:45;3.17;;;0.82;;
63444;SDS011;49573;47.682;9.170;2022-11-18T13:43:53;1.52;;;1.42;;
63444;SDS011;49573;47.682;9.170;2022-11-18T13:46:39;0.55;;;0.50;;
63444;SDS011;49573;47.682;9.170;2022-11-18T13:49:31;1.05;;;0.80;;
63444;SDS011;49573;47.682;9.170;2022-11-18T13:52:32;2.63;;;0.93;;
63444;SDS011;49573;47.682;9.170;2022-11-18T13:55:21;1.48;;;0.68;;
63444;SDS011;49573;47.682;9.170;2022-11-18T13:58:19;1.10;;;0.80;;
63444;SDS011;49573;47.682;9.170;2022-11-18T14:01:17;1.02;;;0.63;;
63444;SDS011;49573;47.682;9.170;2022-11-18T14:04:05;1.30;;;1.05;;
63444;SDS011;49573;47.682;9.170;2022-11-18T14:10:09;2.22;;;0.70;;
63444;SDS011;49573;47.682;9.170;2022-11-18T14:13:00;0.85;;;0.70;;
63444;SDS011;49573;47.682;9.170;2022-11-18T14:15:46;0.85;;;0.60;;
63444;SDS011;49573;47.682;9.170;2022-11-18T14:18:34;0.73;;;0.50;;
63444;SDS011;49573;47.682;9.170;2022-11-18T14:21:25;1.95;;;1.20;;
63444;SDS011;49573;47.682;9.170;2022-11-18T14:24:12;2.42;;;1.35;;
63444;SDS011;49573;47.682;9.170;2022-11-18T14:30:23;2.25;;;1.50;;
63444;SDS011;49573;47.682;9.170;2022-11-18T14:33:16;2.83;;;0.90;;
63444;SDS011;49573;47.682;9.170;2022-11-18T14:36:10;2.67;;;2.20;;
63444;SDS011;49573;47.682;9.170;2022-11-18T14:38:58;1.55;;;1.02;;
63444;SDS011;49573;47.682;9.170;2022-11-18T14:41:44;5.10;;;2.00;;
63444;SDS011;49573;47.682;9.170;2022-11-18T14:44:33;2.47;;;1.30;;
63444;SDS011;49573;47.682;9.170;2022-11-18T14:47:21;1.05;;;0.68;;
63444;SDS011;49573;47.682;9.170;2022-11-18T14:50:11;1.63;;;1.00;;
63444;SDS011;49573;47.682;9.170;2022-11-18T14:52:59;3.70;;;2.00;;
63444;SDS011;49573;47.682;9.170;2022-11-18T14:55:46;4.28;;;0.80;;
63444;SDS011;49573;47.682;9.170;2022-11-18T14:58:35;1.27;;;0.80;;
63444;SDS011;49573;47.682;9.170;2022-11-18T15:01:21;1.60;;;0.90;;
63444;SDS011;49573;47.682;9.170;2022-11-18T15:04:09;1.02;;;0.65;;
63444;SDS011;49573;47.682;9.170;2022-11-18T15:06:55;6.32;;;3.67;;
63444;SDS011;49573;47.682;9.170;2022-11-18T15:09:43;2.25;;;1.77;;
63444;SDS011;49573;47.682;9.170;2022-11-18T15:12:29;3.28;;;2.00;;
63444;SDS011;49573;47.682;9.170;2022-11-18T15:15:15;6.40;;;3.75;;
63444;SDS011;49573;47.682;9.170;2022-11-18T15:18:02;3.93;;;2.40;;
63444;SDS011;49573;47.682;9.170;2022-11-18T15:20:48;2.47;;;1.40;;
63444;SDS011;49573;47.682;9.170;2022-11-18T15:23:34;2.47;;;1.48;;
63444;SDS011;49573;47.682;9.170;2022-11-18T15:26:22;2.63;;;1.42;;
63444;SDS011;49573;47.682;9.170;2022-11-18T15:29:12;2.92;;;1.80;;
63444;SDS011;49573;47.682;9.170;2022-11-18T15:32:01;1.98;;;1.45;;
63444;SDS011;49573;47.682;9.170;2022-11-18T15:34:49;1.58;;;1.08;;
63444;SDS011;49573;47.682;9.170;2022-11-18T15:37:35;2.33;;;1.48;;
63444;SDS011;49573;47.682;9.170;2022-11-18T15:40:21;3.38;;;0.80;;
63444;SDS011;49573;47.682;9.170;2022-11-18T15:43:09;1.20;;;0.98;;
63444;SDS011;49573;47.682;9.170;2022-11-18T15:45:55;2.95;;;1.15;;
63444;SDS011;49573;47.682;9.170;2022-11-18T15:48:42;3.17;;;0.88;;
63444;SDS011;49573;47.682;9.170;2022-11-18T15:51:28;3.17;;;1.60;;
63444;SDS011;49573;47.682;9.170;2022-11-18T15:54:15;4.22;;;1.42;;
63444;SDS011;49573;47.682;9.170;2022-11-18T15:57:01;2.95;;;1.73;;
63444;SDS011;49573;47.682;9.170;2022-11-18T15:59:49;4.03;;;2.40;;
63444;SDS011;49573;47.682;9.170;2022-11-18T16:02:35;3.60;;;1.95;;
63444;SDS011;49573;47.682;9.170;2022-11-18T16:05:21;7.70;;;2.47;;
63444;SDS011;49573;47.682;9.170;2022-11-18T16:08:07;8.43;;;3.20;;
63444;SDS011;49573;47.682;9.170;2022-11-18T16:10:53;6.20;;;3.78;;
63444;SDS011;49573;47.682;9.170;2022-11-18T16:13:59;3.50;;;2.35;;
63444;SDS011;49573;47.682;9.170;2022-11-18T16:16:47;2.22;;;1.50;;
63444;SDS011;49573;47.682;9.170;2022-11-18T16:19:34;4.15;;;1.80;;
63444;SDS011;49573;47.682;9.170;2022-11-18T16:22:20;3.60;;;2.17;;
63444;SDS011;49573;47.682;9.170;2022-11-18T16:25:06;4.45;;;1.98;;
63444;SDS011;49573;47.682;9.170;2022-11-18T16:27:53;3.13;;;1.75;;
63444;SDS011;49573;47.682;9.170;2022-11-18T16:30:39;2.63;;;1.63;;
63444;SDS011;49573;47.682;9.170;2022-11-18T16:33:45;2.92;;;2.08;;
63444;SDS011;49573;47.682;9.170;2022-11-18T16:36:31;5.60;;;2.20;;
63444;SDS011;49573;47.682;9.170;2022-11-18T16:39:18;2.20;;;1.20;;
63444;SDS011;49573;47.682;9.170;2022-11-18T16:42:09;3.83;;;1.95;;
63444;SDS011;49573;47.682;9.170;2022-11-18T16:44:56;3.70;;;2.10;;
63444;SDS011;49573;47.682;9.170;2022-11-18T16:47:42;3.88;;;1.67;;
63444;SDS011;49573;47.682;9.170;2022-11-18T16:50:30;3.58;;;2.00;;
63444;SDS011;49573;47.682;9.170;2022-11-18T16:53:16;3.13;;;1.77;;
63444;SDS011;49573;47.682;9.170;2022-11-18T16:56:03;2.60;;;1.38;;
63444;SDS011;49573;47.682;9.170;2022-11-18T16:58:49;2.90;;;1.65;;
63444;SDS011;49573;47.682;9.170;2022-11-18T17:01:40;2.65;;;1.40;;
63444;SDS011;49573;47.682;9.170;2022-11-18T17:04:27;4.72;;;2.17;;
63444;SDS011;49573;47.682;9.170;2022-11-18T17:07:15;5.65;;;2.70;;
63444;SDS011;49573;47.682;9.170;2022-11-18T17:10:05;2.95;;;1.58;;
63444;SDS011;49573;47.682;9.170;2022-11-18T17:13:03;3.00;;;1.70;;
63444;SDS011;49573;47.682;9.170;2022-11-18T17:15:49;4.35;;;2.60;;
63444;SDS011;49573;47.682;9.170;2022-11-18T17:18:36;5.47;;;2.20;;
63444;SDS011;49573;47.682;9.170;2022-11-18T17:21:22;4.38;;;2.47;;